Decoded Metar for K2DP (STUMPY POINT in NC, USA) (IATA:2DP) | Meteo·Mobile Aviation Weather
aviador You're here:

K2DP Decoded Metar

STUMPY POINT in NC, USA
Report Time2019-02-23 22:57:00
UTC Time2019-02-23 23:16:09
Flight Rules lifr LIFR
Wind130° at 09 kt
W.Rank130° ranks 36
Current wind is above 130° avg. (6.1)
Visibility9999 m
Phenomena:N/A
Clouds:Broken 002 Hf
Overcast 018 Hf
Ceiling200 ft
Temp13°C (ISA -2)
Dew Point13°C (100% RH)
AAT10.7°C
QNH1019 hPa
Density Alt-230 ft
Elevation10 ft
Report Wrong Elevation
Raw Report
K2DP 232257Z AUTO 13009KT 9SM BKN002 OVC018 13/13 A3009 RMK AO2
SHRAE56 SLPNO=

Extra information for K2DP:More info

Metar Taf Metar & Taf Last 4 Metars F.Rules Stats Wind Profile Meteogram Temp Stats Airport Information Weather charts Add Link Nearby VenuesMetar ALERT Operation Metar Decoded Social comments

AIRNAV info for K2DP